sensor_id;sensor_type;location;lat;lon;timestamp;pressure;altitude;pressure_sealevel;temperature
25985;BMP280;66753;53.848;10.658;2023-04-09T00:04:54;102833.75;;;8.31
25985;BMP280;66753;53.848;10.658;2023-04-09T00:19:54;102842.19;;;8.18
25985;BMP280;66753;53.848;10.658;2023-04-09T00:34:55;102846.41;;;8.24
25985;BMP280;66753;53.848;10.658;2023-04-09T00:49:56;102838.22;;;8.26
25985;BMP280;66753;53.848;10.658;2023-04-09T01:04:57;102826.34;;;8.13
25985;BMP280;66753;53.848;10.658;2023-04-09T01:20:09;102836.84;;;7.93
25985;BMP280;66753;53.848;10.658;2023-04-09T01:35:11;102842.38;;;7.77
25985;BMP280;66753;53.848;10.658;2023-04-09T01:50:12;102845.81;;;7.82
25985;BMP280;66753;53.848;10.658;2023-04-09T02:05:17;102842.13;;;7.88
25985;BMP280;66753;53.848;10.658;2023-04-09T02:20:18;102821.81;;;7.94
25985;BMP280;66753;53.848;10.658;2023-04-09T02:35:19;102812.59;;;8.06
25985;BMP280;66753;53.848;10.658;2023-04-09T02:50:19;102799.13;;;8.08
25985;BMP280;66753;53.848;10.658;2023-04-09T03:05:20;102783.00;;;8.14
25985;BMP280;66753;53.848;10.658;2023-04-09T03:20:20;102784.31;;;8.12
25985;BMP280;66753;53.848;10.658;2023-04-09T03:35:21;102784.88;;;8.29
25985;BMP280;66753;53.848;10.658;2023-04-09T03:50:21;102785.38;;;8.46
25985;BMP280;66753;53.848;10.658;2023-04-09T04:05:22;102789.09;;;8.50
25985;BMP280;66753;53.848;10.658;2023-04-09T04:20:24;102784.56;;;8.45
25985;BMP280;66753;53.848;10.658;2023-04-09T04:35:25;102781.16;;;8.40
25985;BMP280;66753;53.848;10.658;2023-04-09T04:50:26;102796.47;;;8.38
25985;BMP280;66753;53.848;10.658;2023-04-09T05:05:26;102795.19;;;8.40
25985;BMP280;66753;53.848;10.658;2023-04-09T05:20:26;102805.19;;;8.48
25985;BMP280;66753;53.848;10.658;2023-04-09T05:35:27;102809.97;;;8.51
25985;BMP280;66753;53.848;10.658;2023-04-09T05:50:27;102814.69;;;8.44
25985;BMP280;66753;53.848;10.658;2023-04-09T06:05:28;102819.13;;;8.89
25985;BMP280;66753;53.848;10.658;2023-04-09T06:20:28;102822.75;;;9.13
25985;BMP280;66753;53.848;10.658;2023-04-09T06:35:29;102826.16;;;9.19
25985;BMP280;66753;53.848;10.658;2023-04-09T06:50:30;102831.94;;;9.36
25985;BMP280;66753;53.848;10.658;2023-04-09T07:05:31;102843.41;;;9.65
25985;BMP280;66753;53.848;10.658;2023-04-09T07:20:32;102842.22;;;9.86
25985;BMP280;66753;53.848;10.658;2023-04-09T07:35:33;102847.88;;;10.13
25985;BMP280;66753;53.848;10.658;2023-04-09T07:50:34;102844.69;;;10.11
25985;BMP280;66753;53.848;10.658;2023-04-09T08:05:34;102841.13;;;10.25
25985;BMP280;66753;53.848;10.658;2023-04-09T08:20:35;102854.09;;;10.84
25985;BMP280;66753;53.848;10.658;2023-04-09T08:35:36;102861.59;;;11.42
25985;BMP280;66753;53.848;10.658;2023-04-09T08:50:37;102857.06;;;11.98
25985;BMP280;66753;53.848;10.658;2023-04-09T09:05:43;102842.16;;;12.16
25985;BMP280;66753;53.848;10.658;2023-04-09T09:20:44;102860.84;;;12.97
25985;BMP280;66753;53.848;10.658;2023-04-09T09:35:49;102841.13;;;12.98
25985;BMP280;66753;53.848;10.658;2023-04-09T09:50:50;102818.66;;;12.77
25985;BMP280;66753;53.848;10.658;2023-04-09T10:05:51;102825.22;;;12.93
25985;BMP280;66753;53.848;10.658;2023-04-09T10:21:00;102821.03;;;13.49
25985;BMP280;66753;53.848;10.658;2023-04-09T10:36:05;102804.75;;;13.29
25985;BMP280;66753;53.848;10.658;2023-04-09T10:51:17;102802.25;;;13.32
25985;BMP280;66753;53.848;10.658;2023-04-09T11:06:19;102774.97;;;13.27
25985;BMP280;66753;53.848;10.658;2023-04-09T11:21:20;102783.84;;;14.27
25985;BMP280;66753;53.848;10.658;2023-04-09T11:36:21;102775.59;;;14.63
25985;BMP280;66753;53.848;10.658;2023-04-09T11:51:21;102760.34;;;13.99
25985;BMP280;66753;53.848;10.658;2023-04-09T12:06:22;102740.13;;;13.23
25985;BMP280;66753;53.848;10.658;2023-04-09T12:21:24;102748.13;;;13.45
25985;BMP280;66753;53.848;10.658;2023-04-09T12:36:26;102757.03;;;14.41
25985;BMP280;66753;53.848;10.658;2023-04-09T12:51:26;102767.47;;;15.19
25985;BMP280;66753;53.848;10.658;2023-04-09T13:06:27;102777.59;;;15.68
25985;BMP280;66753;53.848;10.658;2023-04-09T13:21:28;102761.88;;;16.04
25985;BMP280;66753;53.848;10.658;2023-04-09T13:36:29;102740.66;;;15.99
25985;BMP280;66753;53.848;10.658;2023-04-09T13:51:29;102726.22;;;15.91
25985;BMP280;66753;53.848;10.658;2023-04-09T14:06:30;102731.50;;;16.00
25985;BMP280;66753;53.848;10.658;2023-04-09T14:21:31;102716.94;;;16.18
25985;BMP280;66753;53.848;10.658;2023-04-09T14:36:31;102701.81;;;15.93
25985;BMP280;66753;53.848;10.658;2023-04-09T14:51:32;102702.44;;;15.90
25985;BMP280;66753;53.848;10.658;2023-04-09T15:06:32;102690.63;;;15.91
25985;BMP280;66753;53.848;10.658;2023-04-09T15:21:33;102673.16;;;15.10
25985;BMP280;66753;53.848;10.658;2023-04-09T15:36:33;102665.75;;;15.99
25985;BMP280;66753;53.848;10.658;2023-04-09T15:51:34;102661.25;;;16.32
25985;BMP280;66753;53.848;10.658;2023-04-09T16:06:36;102659.16;;;16.37
25985;BMP280;66753;53.848;10.658;2023-04-09T16:21:37;102649.91;;;16.35
25985;BMP280;66753;53.848;10.658;2023-04-09T16:36:42;102644.28;;;16.07
25985;BMP280;66753;53.848;10.658;2023-04-09T16:51:43;102609.72;;;15.36
25985;BMP280;66753;53.848;10.658;2023-04-09T17:06:45;102606.09;;;15.03
25985;BMP280;66753;53.848;10.658;2023-04-09T17:21:46;102628.03;;;15.25
25985;BMP280;66753;53.848;10.658;2023-04-09T17:36:46;102600.03;;;14.77
25985;BMP280;66753;53.848;10.658;2023-04-09T17:51:49;102592.84;;;13.53
25985;BMP280;66753;53.848;10.658;2023-04-09T18:06:49;102592.97;;;12.52
25985;BMP280;66753;53.848;10.658;2023-04-09T18:21:50;102590.25;;;11.81
25985;BMP280;66753;53.848;10.658;2023-04-09T18:36:53;102581.25;;;11.23
25985;BMP280;66753;53.848;10.658;2023-04-09T18:51:54;102580.84;;;10.79
25985;BMP280;66753;53.848;10.658;2023-04-09T19:06:55;102596.78;;;10.42
25985;BMP280;66753;53.848;10.658;2023-04-09T19:21:57;102600.38;;;10.09
25985;BMP280;66753;53.848;10.658;2023-04-09T19:36:57;102613.94;;;9.79
25985;BMP280;66753;53.848;10.658;2023-04-09T19:51:58;102623.44;;;9.56
25985;BMP280;66753;53.848;10.658;2023-04-09T20:06:58;102613.28;;;9.35
25985;BMP280;66753;53.848;10.658;2023-04-09T20:21:58;102614.56;;;9.09
25985;BMP280;66753;53.848;10.658;2023-04-09T20:36:59;102603.31;;;8.88
25985;BMP280;66753;53.848;10.658;2023-04-09T20:52:00;102591.00;;;8.68
25985;BMP280;66753;53.848;10.658;2023-04-09T21:07:01;102581.59;;;8.47
25985;BMP280;66753;53.848;10.658;2023-04-09T21:22:01;102577.16;;;8.28
25985;BMP280;66753;53.848;10.658;2023-04-09T21:37:02;102568.00;;;8.05
25985;BMP280;66753;53.848;10.658;2023-04-09T21:52:03;102565.38;;;7.90
25985;BMP280;66753;53.848;10.658;2023-04-09T22:07:05;102558.56;;;7.69
25985;BMP280;66753;53.848;10.658;2023-04-09T22:22:06;102556.75;;;7.55
25985;BMP280;66753;53.848;10.658;2023-04-09T22:37:08;102554.91;;;7.40
25985;BMP280;66753;53.848;10.658;2023-04-09T22:52:08;102548.06;;;7.29
25985;BMP280;66753;53.848;10.658;2023-04-09T23:07:08;102544.34;;;7.20
25985;BMP280;66753;53.848;10.658;2023-04-09T23:22:10;102533.25;;;6.93
25985;BMP280;66753;53.848;10.658;2023-04-09T23:37:10;102522.44;;;6.75
25985;BMP280;66753;53.848;10.658;2023-04-09T23:52:11;102522.59;;;6.53
